Time;durP1;ratioP1;P1;durP2;ratioP2;P2;SDS_P1;SDS_P2;PMS_P1;PMS_P2;Temp;Humidity;BMP_temperature;BMP_pressure;BME280_temperature;BME280_humidity;BME280_pressure;Samples;Min_cycle;Max_cycle;Signal;HPM_P1;HPM_P2
2021/06/20 00:01:26;;;;;;;9.95;3.47;;;16.10;83.20;;;;;;5075361;28;20402;-72
2021/06/20 00:03:52;;;;;;;;;;;16.00;83.20;;;;;;5076032;28;20090;-72
2021/06/20 00:06:26;;;;;;;12.50;3.90;;;16.10;83.00;;;;;;5075359;28;19909;-72
2021/06/20 00:08:54;;;;;;;12.32;3.70;;;16.10;82.60;;;;;;5075276;28;20032;-73
2021/06/20 00:11:19;;;;;;;13.80;3.53;;;16.10;82.60;;;;;;5075383;28;20384;-73
2021/06/20 00:13:45;;;;;;;12.60;3.72;;;16.20;82.30;;;;;;5075215;28;20028;-73
2021/06/20 00:16:11;;;;;;;;;;;16.20;81.90;;;;;;5075594;28;20605;-73
2021/06/20 00:18:36;;;;;;;10.25;3.53;;;16.30;81.60;;;;;;5075010;28;19908;-73
2021/06/20 00:21:02;;;;;;;;;;;16.30;81.60;;;;;;5075830;28;20021;-73
2021/06/20 00:23:28;;;;;;;13.27;4.13;;;16.30;81.70;;;;;;5075005;28;19995;-72
2021/06/20 00:25:53;;;;;;;;;;;16.30;82.00;;;;;;5075333;28;20017;-73
2021/06/20 00:28:19;;;;;;;11.98;3.45;;;16.10;82.40;;;;;;5075329;28;19987;-72
2021/06/20 00:30:45;;;;;;;12.55;3.20;;;16.20;82.20;;;;;;5075065;28;20059;-73
2021/06/20 00:33:11;;;;;;;14.70;3.40;;;16.20;82.50;;;;;;5075061;28;20039;-74
2021/06/20 00:35:37;;;;;;;13.00;3.85;;;16.20;82.20;;;;;;5074553;28;20089;-73
2021/06/20 00:38:03;;;;;;;15.60;3.65;;;16.30;82.20;;;;;;5074724;28;20021;-73
2021/06/20 00:40:29;;;;;;;;;;;16.20;82.20;;;;;;5074771;28;20081;-73
2021/06/20 00:42:55;;;;;;;12.70;3.45;;;16.10;82.50;;;;;;5074292;28;19912;-72
2021/06/20 00:45:22;;;;;;;11.75;3.60;;;16.00;82.90;;;;;;5074557;28;20460;-72
2021/06/20 00:47:48;;;;;;;13.10;3.38;;;16.00;82.90;;;;;;5074451;28;20488;-71
2021/06/20 00:50:14;;;;;;;;;;;16.00;82.70;;;;;;5074675;28;20434;-71
2021/06/20 00:52:41;;;;;;;10.18;3.00;;;16.00;82.80;;;;;;5074807;28;19905;-71
2021/06/20 00:55:08;;;;;;;10.77;3.10;;;15.90;83.50;;;;;;5074461;28;20389;-73
2021/06/20 00:57:35;;;;;;;12.88;3.60;;;15.80;83.80;;;;;;5074306;28;20040;-71
2021/06/20 01:00:02;;;;;;;15.55;4.05;;;15.80;83.60;;;;;;5074151;28;20074;-72
2021/06/20 01:02:28;;;;;;;13.25;3.75;;;15.80;83.40;;;;;;5074150;28;20023;-72
2021/06/20 01:04:55;;;;;;;12.23;3.42;;;15.70;83.80;;;;;;5074189;28;20052;-72
2021/06/20 01:07:23;;;;;;;12.85;3.90;;;15.70;84.00;;;;;;5074344;28;20025;-73
2021/06/20 01:09:50;;;;;;;11.65;3.47;;;15.60;84.00;;;;;;5074057;28;20030;-73
2021/06/20 01:12:18;;;;;;;11.65;3.40;;;15.60;84.50;;;;;;5073995;28;20055;-72
2021/06/20 01:14:45;;;;;;;10.70;3.00;;;15.60;84.40;;;;;;5073934;28;20038;-72
2021/06/20 01:17:12;;;;;;;10.80;3.58;;;15.70;83.80;;;;;;5074062;28;20156;-74
2021/06/20 01:19:39;;;;;;;10.98;3.53;;;15.90;82.70;;;;;;5073716;28;20029;-70
2021/06/20 01:22:15;;;;;;;13.30;3.47;;;15.90;82.70;;;;;;5073721;28;20473;-72
2021/06/20 01:24:40;;;;;;;11.57;3.70;;;15.80;83.40;;;;;;5073905;28;20480;-73
2021/06/20 01:27:06;;;;;;;8.85;3.28;;;15.70;83.70;;;;;;5073807;28;20047;-73
2021/06/20 01:29:34;;;;;;;11.40;3.42;;;15.70;83.70;;;;;;5073773;28;20039;-73
2021/06/20 01:32:01;;;;;;;11.65;3.58;;;15.80;83.30;;;;;;5073672;28;20165;-73
2021/06/20 01:34:26;;;;;;;11.90;3.40;;;15.70;83.40;;;;;;5073882;28;20021;-73
2021/06/20 01:36:52;;;;;;;15.40;3.45;;;15.90;83.10;;;;;;5073427;28;20518;-73
2021/06/20 01:39:18;;;;;;;11.63;3.50;;;15.90;82.20;;;;;;5073528;28;20107;-73
2021/06/20 01:41:44;;;;;;;;;;;15.90;82.10;;;;;;5073966;28;20025;-71
2021/06/20 01:44:09;;;;;;;10.07;3.10;;;15.90;82.50;;;;;;5073560;28;19905;-70
2021/06/20 01:46:35;;;;;;;;;;;15.70;82.90;;;;;;5074082;28;20044;-73
2021/06/20 01:49:01;;;;;;;10.05;3.28;;;15.80;82.70;;;;;;5073449;28;19911;-71
2021/06/20 01:51:27;;;;;;;7.50;2.88;;;15.90;82.00;;;;;;5073441;28;20027;-73
2021/06/20 01:53:56;;;;;;;9.23;3.28;;;15.80;82.20;;;;;;5072535;28;20103;-73
2021/06/20 01:56:22;;;;;;;11.52;3.42;;;15.80;82.10;;;;;;5073354;28;20025;-73
2021/06/20 01:58:48;;;;;;;8.60;3.05;;;15.80;82.30;;;;;;5073567;28;20029;-72
2021/06/20 02:01:16;;;;;;;11.07;3.38;;;15.60;82.90;;;;;;5073335;28;20021;-70
2021/06/20 02:03:42;;;;;;;8.55;3.10;;;15.50;83.30;;;;;;5073252;28;20016;-73
2021/06/20 02:06:08;;;;;;;13.95;3.33;;;15.60;83.30;;;;;;5073642;28;20024;-72
2021/06/20 02:08:34;;;;;;;10.45;3.25;;;15.60;83.00;;;;;;5073575;28;20400;-73
2021/06/20 02:10:59;;;;;;;;;;;15.70;83.20;;;;;;5073787;28;20017;-73
2021/06/20 02:13:27;;;;;;;11.75;3.30;;;15.60;82.90;;;;;;5073213;28;19951;-72
2021/06/20 02:15:54;;;;;;;10.65;3.63;;;15.60;82.90;;;;;;5071868;28;20098;-73
2021/06/20 02:18:20;;;;;;;12.60;3.42;;;15.60;83.40;;;;;;5073069;28;20024;-71
2021/06/20 02:20:46;;;;;;;17.45;4.00;;;15.60;83.60;;;;;;5073221;28;20487;-73
2021/06/20 02:23:12;;;;;;;;;;;15.60;83.50;;;;;;5073483;28;20023;-72
2021/06/20 02:25:41;;;;;;;8.93;3.40;;;15.60;83.40;;;;;;5073505;28;19991;-72
2021/06/20 02:28:07;;;;;;;9.75;3.55;;;15.50;83.50;;;;;;5073199;28;20384;-71
2021/06/20 02:30:33;;;;;;;13.15;4.10;;;15.30;84.00;;;;;;5073040;28;20029;-73
2021/06/20 02:32:59;;;;;;;12.60;4.22;;;15.20;85.10;;;;;;5073034;28;20035;-74
2021/06/20 02:35:25;;;;;;;16.65;4.15;;;15.10;85.60;;;;;;5072744;28;20052;-72
2021/06/20 02:37:52;;;;;;;10.50;4.10;;;15.10;85.60;;;;;;5073144;28;20075;-73
2021/06/20 02:40:19;;;;;;;13.65;4.25;;;15.10;85.80;;;;;;5072836;28;20047;-72
2021/06/20 02:42:45;;;;;;;15.43;4.82;;;14.90;87.40;;;;;;5072981;28;20024;-72
2021/06/20 02:45:19;;;;;;;13.63;4.70;;;14.80;88.00;;;;;;5072853;28;20051;-72
2021/06/20 02:47:45;;;;;;;12.27;4.10;;;14.80;88.30;;;;;;5072866;28;20465;-71
2021/06/20 02:50:15;;;;;;;14.20;4.57;;;14.80;88.30;;;;;;5072989;28;20017;-70
2021/06/20 02:52:41;;;;;;;11.82;4.28;;;14.90;88.10;;;;;;5072907;28;20056;-73
2021/06/20 02:55:07;;;;;;;12.68;4.38;;;14.80;88.60;;;;;;5073010;28;20025;-73
2021/06/20 02:57:33;;;;;;;;;;;14.80;89.10;;;;;;5073164;28;20146;-73
2021/06/20 03:00:02;;;;;;;12.30;4.32;;;14.70;89.20;;;;;;5073026;28;20007;-72
2021/06/20 03:02:28;;;;;;;13.32;3.75;;;14.90;88.70;;;;;;5072701;28;20052;-73
2021/06/20 03:04:55;;;;;;;11.35;4.20;;;15.00;88.10;;;;;;5074513;28;20028;-73
2021/06/20 03:07:21;;;;;;;15.63;4.35;;;15.10;87.20;;;;;;5076449;28;20118;-73
2021/06/20 03:09:48;;;;;;;12.13;4.65;;;15.20;86.90;;;;;;5076362;28;20369;-71
2021/06/20 03:12:15;;;;;;;13.38;3.78;;;15.10;87.20;;;;;;5076313;28;20021;-73
2021/06/20 03:14:44;;;;;;;15.18;4.57;;;15.10;87.30;;;;;;5076286;28;20024;-73
2021/06/20 03:17:12;;;;;;;14.50;4.40;;;15.20;87.00;;;;;;5076371;28;20028;-71
2021/06/20 03:19:38;;;;;;;11.60;4.03;;;15.20;86.70;;;;;;5074863;28;20058;-73
2021/06/20 03:22:05;;;;;;;12.32;3.80;;;15.30;86.50;;;;;;5076101;28;20388;-73
2021/06/20 03:24:34;;;;;;;10.88;3.65;;;15.30;86.30;;;;;;5076130;28;20020;-72
2021/06/20 03:27:00;;;;;;;11.02;3.70;;;15.30;86.30;;;;;;5076213;28;20017;-73
2021/06/20 03:29:27;;;;;;;13.52;4.30;;;15.40;86.70;;;;;;5076046;28;20025;-74
2021/06/20 03:31:54;;;;;;;12.95;3.90;;;15.30;86.60;;;;;;5075957;28;20020;-72
2021/06/20 03:34:21;;;;;;;9.95;3.58;;;15.20;87.10;;;;;;5075911;28;20098;-72
2021/06/20 03:36:47;;;;;;;8.05;3.10;;;15.30;87.10;;;;;;5075686;28;20045;-72
2021/06/20 03:39:13;;;;;;;12.90;3.63;;;15.40;86.80;;;;;;5075757;28;20166;-74
2021/06/20 03:41:40;;;;;;;10.10;3.78;;;15.20;86.80;;;;;;5075806;28;20142;-72
2021/06/20 03:44:07;;;;;;;10.23;4.03;;;15.20;87.10;;;;;;5075807;28;20488;-73
2021/06/20 03:46:36;;;;;;;11.90;3.88;;;15.30;86.60;;;;;;5075744;28;20385;-72
2021/06/20 03:49:04;;;;;;;9.52;3.63;;;15.30;86.80;;;;;;5075659;28;20021;-72
2021/06/20 03:51:31;;;;;;;10.95;3.25;;;15.10;87.80;;;;;;5075622;28;20056;-71
2021/06/20 03:53:57;;;;;;;14.38;4.07;;;15.10;87.60;;;;;;5075627;28;20078;-74
2021/06/20 03:56:23;;;;;;;11.32;3.63;;;15.20;87.20;;;;;;5075655;28;20040;-71
2021/06/20 03:58:49;;;;;;;10.85;3.90;;;15.30;86.90;;;;;;5075393;28;20362;-70
2021/06/20 04:01:14;;;;;;;;;;;15.30;87.20;;;;;;5076087;28;20078;-73
2021/06/20 04:03:40;;;;;;;10.77;3.42;;;15.40;86.50;;;;;;5075433;28;19911;-72
2021/06/20 04:06:06;;;;;;;;;;;15.40;86.40;;;;;;5075736;28;20099;-73
2021/06/20 04:08:31;;;;;;;12.45;3.90;;;15.30;86.80;;;;;;5075347;28;19911;-73
2021/06/20 04:10:57;;;;;;;9.43;3.47;;;15.40;86.80;;;;;;5075278;28;20092;-70
2021/06/20 04:13:23;;;;;;;15.70;4.25;;;15.40;86.70;;;;;;5075252;28;20025;-72
2021/06/20 04:15:49;;;;;;;9.43;3.67;;;15.50;86.00;;;;;;5074418;28;20500;-72
2021/06/20 04:18:14;;;;;;;;;;;15.50;85.60;;;;;;5075599;28;20032;-72
2021/06/20 04:20:40;;;;;;;11.10;3.92;;;15.40;85.60;;;;;;5075023;28;19915;-73
2021/06/20 04:23:06;;;;;;;;;;;15.50;85.40;;;;;;5075369;28;20025;-73
2021/06/20 04:25:32;;;;;;;13.75;4.07;;;15.50;85.60;;;;;;5075027;28;20440;-73
2021/06/20 04:27:58;;;;;;;;;;;15.50;85.70;;;;;;5075347;28;20039;-72
2021/06/20 04:30:24;;;;;;;14.07;3.90;;;15.50;85.30;;;;;;5075009;28;19904;-73
2021/06/20 04:32:51;;;;;;;11.45;3.40;;;15.60;85.20;;;;;;5074837;28;20024;-73
2021/06/20 04:35:19;;;;;;;13.13;4.07;;;15.50;85.70;;;;;;5074689;28;20055;-73
2021/06/20 04:37:46;;;;;;;14.98;4.03;;;15.50;85.70;;;;;;5074780;28;20028;-72
2021/06/20 04:40:16;;;;;;;11.52;3.72;;;15.70;85.30;;;;;;5074694;28;20039;-72
2021/06/20 04:42:43;;;;;;;12.52;3.42;;;15.70;85.20;;;;;;5074634;28;20027;-73
2021/06/20 04:45:10;;;;;;;12.45;3.80;;;15.80;84.80;;;;;;5074715;28;20099;-74
2021/06/20 04:47:38;;;;;;;10.68;4.28;;;15.90;84.30;;;;;;5074590;28;20012;-71
2021/06/20 04:50:04;;;;;;;14.80;3.78;;;16.00;84.10;;;;;;5074464;28;20445;-74
2021/06/20 04:52:30;;;;;;;16.95;4.30;;;16.00;84.10;;;;;;5074430;28;20416;-70
2021/06/20 04:54:56;;;;;;;12.43;3.70;;;15.90;84.10;;;;;;5074353;28;20020;-72
2021/06/20 04:57:28;;;;;;;12.77;4.13;;;15.90;84.50;;;;;;5074320;28;20074;-71
2021/06/20 04:59:57;;;;;;;14.77;4.38;;;15.80;85.00;;;;;;5074209;28;20388;-72
2021/06/20 05:02:24;;;;;;;12.80;3.85;;;15.70;85.60;;;;;;5074207;28;20480;-72
2021/06/20 05:04:50;;;;;;;10.98;4.30;;;15.70;85.90;;;;;;5074174;28;20016;-72
2021/06/20 05:07:17;;;;;;;14.13;3.60;;;15.70;86.10;;;;;;5074147;28;20048;-70
2021/06/20 05:09:43;;;;;;;11.10;3.85;;;15.80;86.10;;;;;;5074103;28;20039;-73
2021/06/20 05:12:09;;;;;;;;;;;15.80;85.90;;;;;;5074545;28;20047;-71
2021/06/20 05:14:37;;;;;;;11.20;3.78;;;15.90;85.80;;;;;;5073995;28;20364;-72
2021/06/20 05:17:03;;;;;;;11.88;4.15;;;16.00;85.20;;;;;;5073972;28;20039;-72
2021/06/20 05:19:29;;;;;;;15.00;4.60;;;16.00;85.10;;;;;;5074100;28;20024;-74
2021/06/20 05:21:55;;;;;;;;;;;16.00;85.40;;;;;;5074280;28;20113;-71
2021/06/20 05:24:21;;;;;;;17.23;3.88;;;16.20;84.70;;;;;;5073840;28;19908;-71
2021/06/20 05:26:46;;;;;;;;;;;16.20;84.80;;;;;;5074051;28;20101;-73
2021/06/20 05:29:12;;;;;;;11.02;3.58;;;16.20;84.00;;;;;;5074003;28;19948;-73
2021/06/20 05:31:38;;;;;;;;;;;16.30;84.50;;;;;;5074253;28;20109;-72
2021/06/20 05:34:04;;;;;;;12.05;3.78;;;16.30;84.00;;;;;;5073610;28;20334;-73
2021/06/20 05:36:29;;;;;;;;;;;16.50;83.80;;;;;;5073772;28;20064;-72
2021/06/20 05:38:55;;;;;;;13.05;4.13;;;16.50;83.30;;;;;;5073447;28;19912;-72
2021/06/20 05:41:21;;;;;;;;;;;16.50;83.20;;;;;;5073899;28;20024;-73
2021/06/20 05:43:47;;;;;;;12.55;3.80;;;16.50;83.10;;;;;;5073385;28;19904;-73
2021/06/20 05:46:12;;;;;;;;;;;16.50;83.40;;;;;;5073775;28;20021;-72
2021/06/20 05:48:39;;;;;;;10.43;3.60;;;16.70;82.70;;;;;;5073397;28;20421;-73
2021/06/20 05:51:05;;;;;;;11.43;3.67;;;16.80;82.70;;;;;;5072019;28;20028;-73
2021/06/20 05:53:30;;;;;;;;;;;16.90;82.10;;;;;;5073700;28;20155;-72
2021/06/20 05:55:56;;;;;;;13.05;3.70;;;17.00;81.50;;;;;;5073372;28;20045;-72
2021/06/20 05:58:22;;;;;;;;;;;17.10;81.20;;;;;;5073611;28;20023;-73
2021/06/20 06:00:47;;;;;;;13.68;3.80;;;17.30;80.70;;;;;;5071896;28;19915;-70
2021/06/20 06:03:13;;;;;;;;;;;17.30;81.30;;;;;;5073998;28;20032;-72
2021/06/20 06:05:39;;;;;;;16.58;3.70;;;17.40;80.40;;;;;;5073183;28;20388;-73
2021/06/20 06:08:04;;;;;;;;;;;17.40;80.70;;;;;;5073716;28;20107;-73
2021/06/20 06:10:30;;;;;;;13.68;3.70;;;17.60;79.70;;;;;;5073108;28;19912;-72
2021/06/20 06:12:58;;;;;;;11.80;3.70;;;17.80;78.80;;;;;;5073129;28;20381;-73
2021/06/20 06:15:25;;;;;;;13.27;4.00;;;18.10;78.60;;;;;;5071809;28;20060;-72
2021/06/20 06:17:51;;;;;;;10.55;3.50;;;18.40;77.50;;;;;;5073127;28;20016;-72
2021/06/20 06:20:18;;;;;;;14.70;4.13;;;18.60;76.40;;;;;;5073159;28;20429;-74
2021/06/20 06:22:44;;;;;;;12.20;3.10;;;18.70;76.00;;;;;;5072932;28;20017;-72
2021/06/20 06:25:11;;;;;;;13.02;3.58;;;18.80;75.90;;;;;;5073021;28;20069;-72
2021/06/20 06:27:38;;;;;;;10.77;3.17;;;18.90;75.70;;;;;;5073142;28;20017;-74
2021/06/20 06:30:04;;;;;;;11.07;3.05;;;19.10;75.20;;;;;;5072919;28;20032;-72
2021/06/20 06:32:30;;;;;;;15.93;3.83;;;19.30;74.40;;;;;;5072975;28;20384;-74
2021/06/20 06:34:56;;;;;;;12.57;3.50;;;19.30;73.70;;;;;;5072828;28;20025;-72
2021/06/20 06:37:21;;;;;;;11.57;3.80;;;19.20;75.20;;;;;;5072426;28;20044;-73
2021/06/20 06:39:47;;;;;;;12.55;3.30;;;19.30;73.90;;;;;;5074496;28;20041;-73
2021/06/20 06:42:13;;;;;;;12.52;3.33;;;19.30;74.30;;;;;;5076925;28;20029;-72
2021/06/20 06:44:39;;;;;;;12.48;3.58;;;19.40;74.40;;;;;;5076778;28;20025;-72
2021/06/20 06:47:05;;;;;;;14.80;3.78;;;19.30;74.30;;;;;;5076748;28;20020;-73
2021/06/20 06:49:31;;;;;;;10.10;3.60;;;19.10;74.70;;;;;;5076691;28;20060;-73
2021/06/20 06:51:57;;;;;;;13.35;3.60;;;19.30;74.20;;;;;;5076715;28;20028;-75
2021/06/20 06:54:23;;;;;;;12.93;3.25;;;19.40;73.70;;;;;;5075336;28;20028;-72
2021/06/20 06:56:49;;;;;;;14.85;3.55;;;19.30;74.10;;;;;;5076601;28;20090;-74
2021/06/20 06:59:15;;;;;;;15.23;3.63;;;19.00;74.50;;;;;;5075128;28;20438;-73
2021/06/20 07:01:40;;;;;;;15.70;3.40;;;19.10;75.40;;;;;;5076406;28;20418;-73
2021/06/20 07:04:06;;;;;;;12.90;3.50;;;19.10;75.00;;;;;;5076478;28;20024;-73
2021/06/20 07:06:32;;;;;;;12.25;3.40;;;19.20;75.70;;;;;;5076560;28;20488;-72
2021/06/20 07:08:58;;;;;;;10.88;3.40;;;19.10;74.40;;;;;;5076387;28;20029;-70
2021/06/20 07:11:23;;;;;;;15.07;4.13;;;19.10;74.40;;;;;;5076287;28;20032;-71
2021/06/20 07:13:49;;;;;;;15.65;3.40;;;19.20;73.80;;;;;;5076545;28;20025;-72
2021/06/20 07:16:15;;;;;;;10.40;3.38;;;19.50;73.30;;;;;;5074903;28;20029;-72
2021/06/20 07:18:41;;;;;;;12.15;3.30;;;19.70;73.10;;;;;;5075952;28;20047;-72
2021/06/20 07:21:07;;;;;;;9.55;2.97;;;19.50;72.10;;;;;;5075977;28;20017;-72
2021/06/20 07:23:34;;;;;;;10.93;2.75;;;19.70;71.90;;;;;;5074699;28;20464;-72
2021/06/20 07:25:59;;;;;;;12.68;3.38;;;19.80;72.60;;;;;;5076004;28;20025;-74
2021/06/20 07:28:26;;;;;;;9.68;2.88;;;20.10;71.10;;;;;;5076225;28;20024;-73
2021/06/20 07:30:52;;;;;;;12.65;2.83;;;20.20;70.80;;;;;;5075858;28;20025;-70
2021/06/20 07:33:23;;;;;;;10.80;3.20;;;20.20;69.80;;;;;;5075835;28;20093;-71
2021/06/20 07:35:51;;;;;;;10.73;2.80;;;20.20;70.40;;;;;;5075591;28;20037;-70
2021/06/20 07:38:18;;;;;;;12.20;2.80;;;20.30;69.30;;;;;;5075772;28;20055;-70
2021/06/20 07:40:44;;;;;;;11.18;2.65;;;20.30;69.10;;;;;;5075642;28;20066;-72
2021/06/20 07:43:09;;;;;;;8.80;2.60;;;20.40;69.70;;;;;;5075707;28;20024;-69
2021/06/20 07:45:37;;;;;;;13.48;2.78;;;20.30;69.40;;;;;;5075997;28;20381;-71
2021/06/20 07:48:03;;;;;;;9.60;2.53;;;20.30;69.40;;;;;;5075519;28;20565;-70
2021/06/20 07:50:29;;;;;;;11.63;2.80;;;20.50;69.20;;;;;;5074796;28;20017;-70
2021/06/20 07:52:55;;;;;;;12.75;2.67;;;20.60;68.60;;;;;;5075158;28;20499;-72
2021/06/20 07:55:21;;;;;;;12.43;2.80;;;20.80;68.50;;;;;;5075507;28;20026;-70
2021/06/20 07:57:46;;;;;;;15.23;2.67;;;20.70;68.00;;;;;;5074139;28;20119;-72
2021/06/20 08:00:13;;;;;;;9.90;2.95;;;20.60;68.80;;;;;;5075464;28;20416;-69
2021/06/20 08:02:39;;;;;;;11.85;2.70;;;20.70;67.20;;;;;;5075376;28;20032;-70
2021/06/20 08:05:05;;;;;;;12.90;2.72;;;20.60;67.20;;;;;;5075305;28;20020;-70
2021/06/20 08:07:34;;;;;;;14.45;2.80;;;20.30;68.00;;;;;;5075392;28;20052;-71
2021/06/20 08:10:00;;;;;;;10.35;2.50;;;20.10;69.20;;;;;;5075368;28;20049;-69
2021/06/20 08:12:27;;;;;;;9.57;2.53;;;20.30;68.10;;;;;;5075157;28;20391;-70
2021/06/20 08:14:53;;;;;;;9.32;2.40;;;20.30;68.10;;;;;;5075316;28;20028;-69
2021/06/20 08:17:20;;;;;;;8.98;2.72;;;20.30;68.70;;;;;;5075227;28;20120;-70
2021/06/20 08:19:46;;;;;;;13.68;2.88;;;20.20;68.90;;;;;;5075083;28;20070;-71
2021/06/20 08:22:13;;;;;;;11.30;2.58;;;20.10;70.10;;;;;;5074869;28;20021;-71
2021/06/20 08:24:40;;;;;;;14.43;2.95;;;20.10;69.70;;;;;;5075003;28;20027;-70
2021/06/20 08:27:07;;;;;;;13.10;2.95;;;20.00;70.20;;;;;;5074769;28;20120;-70
2021/06/20 08:29:33;;;;;;;11.88;3.10;;;20.20;69.90;;;;;;5075248;28;20024;-71
2021/06/20 08:32:00;;;;;;;11.38;2.65;;;20.30;69.60;;;;;;5074600;28;20048;-70
2021/06/20 08:34:29;;;;;;;11.10;2.60;;;20.20;69.80;;;;;;5074952;28;20020;-70
2021/06/20 08:36:59;;;;;;;10.95;2.40;;;20.30;69.30;;;;;;5074374;28;20052;-71
2021/06/20 08:39:26;;;;;;;15.18;4.25;;;20.30;69.40;;;;;;5074454;28;20032;-70
2021/06/20 08:41:53;;;;;;;14.65;3.35;;;20.20;69.70;;;;;;5074496;28;20016;-70
2021/06/20 08:44:29;;;;;;;12.15;3.10;;;19.80;70.40;;;;;;5072684;28;20484;-71
2021/06/20 08:46:57;;;;;;;12.50;2.78;;;19.90;71.20;;;;;;5073392;28;20025;-70
2021/06/20 08:49:23;;;;;;;12.00;3.80;;;20.00;70.90;;;;;;5074379;28;20499;-70
2021/06/20 08:51:52;;;;;;;12.75;2.88;;;20.00;71.30;;;;;;5074297;28;20025;-70
2021/06/20 08:54:18;;;;;;;11.73;2.83;;;20.10;70.50;;;;;;5074396;28;20027;-70
2021/06/20 08:56:47;;;;;;;10.18;2.95;;;20.20;70.20;;;;;;5074132;28;20032;-71
2021/06/20 08:59:13;;;;;;;10.82;3.00;;;20.30;70.00;;;;;;5074525;28;20016;-69
2021/06/20 09:01:39;;;;;;;9.40;2.50;;;20.50;69.60;;;;;;5073986;28;20074;-71
2021/06/20 09:04:05;;;;;;;12.07;2.92;;;20.70;68.90;;;;;;5073992;28;20095;-71
2021/06/20 09:06:31;;;;;;;10.55;2.30;;;21.00;67.50;;;;;;5074043;28;20105;-70
2021/06/20 09:09:03;;;;;;;11.68;3.00;;;20.80;67.10;;;;;;5074029;28;20545;-70
2021/06/20 09:11:34;;;;;;;15.85;4.95;;;21.00;68.10;;;;;;5074149;28;20024;-70
2021/06/20 09:14:07;;;;;;;13.73;4.90;;;21.10;67.10;;;;;;5074040;28;20512;-72
2021/06/20 09:16:35;;;;;;;14.18;3.28;;;21.00;67.80;;;;;;5073946;28;20025;-70
2021/06/20 09:19:01;;;;;;;13.88;3.00;;;21.30;67.00;;;;;;5073605;28;20035;-69
2021/06/20 09:21:27;;;;;;;13.95;2.95;;;21.70;65.10;;;;;;5073752;28;20107;-71
2021/06/20 09:23:58;;;;;;;10.55;2.75;;;22.10;63.90;;;;;;5073642;28;20020;-71
2021/06/20 09:26:41;;;;;;;10.85;3.00;;;22.30;63.30;;;;;;5073908;28;20044;-71
2021/06/20 09:29:08;;;;;;;12.48;2.75;;;22.10;63.80;;;;;;5073572;28;20104;-70
2021/06/20 09:31:45;;;;;;;11.05;2.60;;;21.60;65.00;;;;;;5073057;28;20438;-70
2021/06/20 09:34:11;;;;;;;9.13;2.50;;;21.60;64.80;;;;;;5073375;28;20029;-70
2021/06/20 09:36:37;;;;;;;9.73;2.45;;;21.50;65.10;;;;;;5073109;28;20063;-69
2021/06/20 09:39:05;;;;;;;12.25;2.85;;;21.30;65.60;;;;;;5073388;28;20527;-71
2021/06/20 09:41:31;;;;;;;9.88;2.58;;;21.20;67.00;;;;;;5073427;28;20024;-71
2021/06/20 09:43:57;;;;;;;9.73;2.67;;;20.90;66.40;;;;;;5072358;28;20037;-70
2021/06/20 09:46:24;;;;;;;8.52;2.67;;;20.60;68.10;;;;;;5073277;28;20484;-71
2021/06/20 09:48:50;;;;;;;11.43;2.78;;;20.40;70.00;;;;;;5073310;28;20476;-71
2021/06/20 09:51:19;;;;;;;10.55;2.45;;;20.40;69.30;;;;;;5073241;28;20034;-71
2021/06/20 09:53:47;;;;;;;14.45;3.47;;;20.50;69.40;;;;;;5073246;28;20032;-71
2021/06/20 09:56:32;;;;;;;12.20;3.13;;;20.60;69.20;;;;;;5073204;28;20032;-70
2021/06/20 09:59:04;;;;;;;12.18;2.72;;;20.40;70.10;;;;;;5073297;28;20125;-72
2021/06/20 10:01:33;;;;;;;12.77;3.00;;;20.50;70.70;;;;;;5073176;28;20021;-72
2021/06/20 10:03:59;;;;;;;11.45;2.65;;;20.60;69.70;;;;;;5073163;28;20451;-69
2021/06/20 10:06:25;;;;;;;14.30;2.92;;;20.80;69.70;;;;;;5073151;28;20017;-69
2021/06/20 10:08:51;;;;;;;12.73;2.83;;;20.90;69.00;;;;;;5073116;28;20490;-71
2021/06/20 10:11:18;;;;;;;10.98;2.88;;;20.90;68.50;;;;;;5073598;28;20020;-70
2021/06/20 10:13:44;;;;;;;11.60;3.22;;;20.80;69.00;;;;;;5072654;28;20373;-70
2021/06/20 10:16:21;;;;;;;12.43;3.08;;;20.70;69.00;;;;;;5073161;28;20392;-71
2021/06/20 10:19:15;;;;;;;14.15;3.22;;;20.80;68.00;;;;;;5072929;28;20079;-72
2021/06/20 10:21:46;;;;;;;12.13;2.65;;;21.10;68.30;;;;;;5070467;28;20029;-69
2021/06/20 10:24:17;;;;;;;14.02;3.53;;;21.30;66.90;;;;;;5073113;28;20100;-70
2021/06/20 10:26:53;;;;;;;13.98;2.90;;;21.70;65.50;;;;;;5072999;28;20017;-70
2021/06/20 10:29:25;;;;;;;11.80;2.50;;;21.90;63.90;;;;;;5073176;28;20078;-69
2021/06/20 10:31:53;;;;;;;12.57;3.05;;;22.20;63.20;;;;;;5073069;28;20028;-70
2021/06/20 10:34:23;;;;;;;9.93;2.80;;;22.30;62.70;;;;;;5072893;28;20029;-71
2021/06/20 10:36:55;;;;;;;11.27;2.50;;;22.40;62.30;;;;;;5071298;28;20049;-70
2021/06/20 10:39:22;;;;;;;20.35;3.20;;;22.50;62.10;;;;;;5072921;28;20037;-71
2021/06/20 10:41:48;;;;;;;11.88;2.72;;;22.70;61.90;;;;;;5072809;28;20067;-71
2021/06/20 10:44:14;;;;;;;9.35;2.50;;;22.80;62.40;;;;;;5071438;28;20031;-71
2021/06/20 10:46:41;;;;;;;11.38;2.70;;;22.70;62.20;;;;;;5072738;28;20021;-72
2021/06/20 10:49:18;;;;;;;14.95;2.75;;;22.60;62.90;;;;;;5072961;28;20078;-70
2021/06/20 10:51:44;;;;;;;11.02;3.08;;;22.60;61.90;;;;;;5072962;28;20024;-70
2021/06/20 10:54:28;;;;;;;11.38;2.95;;;22.80;62.60;;;;;;5072696;28;20028;-69
2021/06/20 10:57:00;;;;;;;13.07;3.60;;;23.30;61.60;;;;;;5071050;28;20124;-71
2021/06/20 10:59:27;;;;;;;10.65;2.75;;;24.10;60.40;;;;;;5072875;28;20033;-71
2021/06/20 11:01:53;;;;;;;17.40;3.15;;;24.30;58.00;;;;;;5072524;28;20045;-70
2021/06/20 11:04:20;;;;;;;12.65;2.83;;;24.70;57.20;;;;;;5072618;28;20036;-72
2021/06/20 11:06:53;;;;;;;8.77;2.67;;;24.80;57.30;;;;;;5072467;28;20048;-72
2021/06/20 11:09:21;;;;;;;10.93;3.00;;;25.10;56.20;;;;;;5072689;28;20097;-71
2021/06/20 11:12:02;;;;;;;11.98;2.67;;;25.60;55.40;;;;;;5072522;28;20476;-69
2021/06/20 11:14:28;;;;;;;12.95;2.60;;;26.00;53.50;;;;;;5070959;28;20036;-70
2021/06/20 11:16:54;;;;;;;10.95;2.50;;;26.60;52.50;;;;;;5072798;28;20070;-71
2021/06/20 11:19:28;;;;;;;8.55;2.58;;;27.20;52.00;;;;;;5072538;28;20109;-70
2021/06/20 11:22:01;;;;;;;9.40;2.50;;;27.90;49.70;;;;;;5071088;28;20032;-69
2021/06/20 11:24:29;;;;;;;8.50;2.30;;;28.50;48.30;;;;;;5072389;28;20103;-71
2021/06/20 11:26:57;;;;;;;7.65;2.17;;;29.10;47.50;;;;;;5075787;28;20016;-71
2021/06/20 11:29:25;;;;;;;11.30;2.90;;;29.80;46.40;;;;;;5075965;28;20033;-70
2021/06/20 11:31:53;;;;;;;12.45;2.67;;;30.30;45.30;;;;;;5075887;28;20408;-70
2021/06/20 11:34:19;;;;;;;10.20;2.47;;;29.60;46.60;;;;;;5075807;28;20155;-72
2021/06/20 11:36:45;;;;;;;9.70;2.40;;;28.80;47.70;;;;;;5075697;28;20173;-72
2021/06/20 11:39:13;;;;;;;8.35;2.15;;;28.40;48.60;;;;;;5074426;28;20112;-72
2021/06/20 11:41:47;;;;;;;7.70;2.30;;;29.20;47.40;;;;;;5075706;28;20511;-71
2021/06/20 11:44:14;;;;;;;;;;;29.90;46.10;;;;;;5076207;28;20017;-71
2021/06/20 11:46:42;;;;;;;9.93;2.53;;;30.80;44.70;;;;;;5075681;28;19905;-72
2021/06/20 11:49:11;;;;;;;10.38;2.60;;;31.60;42.90;;;;;;5075599;28;20099;-71
2021/06/20 11:51:46;;;;;;;11.98;2.65;;;32.00;43.20;;;;;;5075543;28;20025;-72
2021/06/20 11:54:29;;;;;;;9.02;2.15;;;33.50;40.90;;;;;;5075487;28;20555;-73
2021/06/20 11:57:05;;;;;;;9.13;2.50;;;31.90;41.80;;;;;;5075508;28;20392;-72
2021/06/20 11:59:33;;;;;;;7.93;2.70;;;31.00;42.30;;;;;;5074000;28;20377;-69
2021/06/20 12:02:00;;;;;;;8.23;2.30;;;32.20;41.50;;;;;;5075257;28;20020;-71
2021/06/20 12:04:29;;;;;;;9.75;2.58;;;32.40;40.70;;;;;;5074029;28;20023;-70
2021/06/20 12:06:55;;;;;;;10.88;3.10;;;31.40;41.30;;;;;;5073984;28;20020;-71
2021/06/20 12:09:23;;;;;;;8.52;2.55;;;31.00;41.70;;;;;;5075176;28;20028;-72
2021/06/20 12:12:06;;;;;;;6.55;2.10;;;31.00;43.00;;;;;;5075117;28;20121;-72
2021/06/20 12:14:33;;;;;;;9.73;2.80;;;31.00;42.80;;;;;;5075151;28;20020;-73
2021/06/20 12:17:00;;;;;;;7.80;2.30;;;32.30;41.70;;;;;;5075048;28;20028;-71
2021/06/20 12:19:30;;;;;;;8.23;2.08;;;32.40;39.00;;;;;;5074962;28;20016;-71
2021/06/20 12:22:07;;;;;;;6.80;1.80;;;31.30;40.40;;;;;;5075132;28;20020;-72
2021/06/20 12:24:38;;;;;;;9.18;2.25;;;30.20;43.10;;;;;;5075232;28;20017;-71
2021/06/20 12:27:04;;;;;;;8.43;1.90;;;29.50;44.20;;;;;;5074844;28;20095;-71
2021/06/20 12:29:34;;;;;;;8.77;2.25;;;30.10;43.80;;;;;;5074802;28;20445;-70
2021/06/20 12:32:04;;;;;;;7.28;2.17;;;30.50;43.00;;;;;;5074736;28;20504;-70
2021/06/20 12:34:48;;;;;;;8.05;2.25;;;31.00;43.30;;;;;;5074687;28;20066;-72
2021/06/20 12:37:15;;;;;;;7.95;2.13;;;30.20;43.80;;;;;;5073776;28;20044;-72
2021/06/20 12:39:50;;;;;;;7.13;2.10;;;29.90;44.50;;;;;;5073190;28;20056;-70
2021/06/20 12:42:17;;;;;;;9.65;2.20;;;30.30;44.10;;;;;;5074618;28;20383;-70
2021/06/20 12:44:49;;;;;;;10.38;2.65;;;29.70;44.70;;;;;;5074536;28;20074;-70
2021/06/20 12:47:18;;;;;;;9.35;2.20;;;29.20;45.20;;;;;;5074708;28;20032;-72